シドニー の空港の天気 - METARとTAF

シドニー国際空港 ( YSSY / SYD ) - オーストラリア ニューサウスウェールズ州、Mascot
飛行場実況気象(Metar)
観測時間07/29 12:30 AEST (07/29 02:30 UTC)
風向・風速南西 5m/s
視程10km以上
天気現象
なし
気温18℃
湿度26%
気圧1013hPa
METARYSSY 290230Z 23009KT CAVOK 18/M02 Q1013
過去の天気等 Google飛行場航空写真 Wunderground天気予報

過去48時間のMETAR

飛行場予報(TAF)
発表時間: 7/29 12:10 AEST (7/29 02:10 UTC)
予報対象時間: 29日13時 AEST ~ 30日16時 AEST
風向・風速西南西 7m/s
視程10km以上
なし
29日22時 AEST から
風向・風速西北西 4m/s
視程10km以上
なし
30日13時 AEST から
風向・風速北北東 5m/s
視程10km以上
なし
TAF YSSY 290210Z 2903/3006 24013KT CAVOK
FM291200 29008KT CAVOK
FM300300 02010KT CAVOK